sensor_id;sensor_type;location;lat;lon;timestamp;pressure;altitude;pressure_sealevel;temperature;humidity
78800;BME280;68148;55.328;86.106;2023-12-20T00:01:54;100829.34;;;-12.05;95.55
78800;BME280;68148;55.328;86.106;2023-12-20T00:04:19;100824.22;;;-12.02;95.88
78800;BME280;68148;55.328;86.106;2023-12-20T00:06:47;100820.81;;;-12.01;96.88
78800;BME280;68148;55.328;86.106;2023-12-20T00:09:12;100822.53;;;-12.01;96.75
78800;BME280;68148;55.328;86.106;2023-12-20T00:11:38;100826.63;;;-11.91;97.04
78800;BME280;68148;55.328;86.106;2023-12-20T00:14:04;100823.19;;;-11.85;96.94
78800;BME280;68148;55.328;86.106;2023-12-20T00:16:30;100823.13;;;-11.82;97.33
78800;BME280;68148;55.328;86.106;2023-12-20T00:18:55;100839.97;;;-11.72;96.80
78800;BME280;68148;55.328;86.106;2023-12-20T00:21:21;100835.72;;;-11.73;97.10
78800;BME280;68148;55.328;86.106;2023-12-20T00:23:47;100839.06;;;-11.68;97.59
78800;BME280;68148;55.328;86.106;2023-12-20T00:26:13;100839.97;;;-11.72;97.69
78800;BME280;68148;55.328;86.106;2023-12-20T00:28:38;100835.69;;;-11.70;98.37
78800;BME280;68148;55.328;86.106;2023-12-20T00:31:06;100838.13;;;-11.61;97.86
78800;BME280;68148;55.328;86.106;2023-12-20T00:33:32;100840.59;;;-11.56;97.56
78800;BME280;68148;55.328;86.106;2023-12-20T00:35:58;100832.94;;;-11.53;98.19
78800;BME280;68148;55.328;86.106;2023-12-20T00:38:24;100835.47;;;-11.53;98.71
78800;BME280;68148;55.328;86.106;2023-12-20T00:40:50;100817.38;;;-11.35;97.80
78800;BME280;68148;55.328;86.106;2023-12-20T00:43:18;100831.00;;;-11.36;97.75
78800;BME280;68148;55.328;86.106;2023-12-20T00:45:44;100826.00;;;-11.44;98.85
78800;BME280;68148;55.328;86.106;2023-12-20T00:48:10;100819.22;;;-11.45;99.25
78800;BME280;68148;55.328;86.106;2023-12-20T00:50:36;100830.25;;;-11.43;99.56
78800;BME280;68148;55.328;86.106;2023-12-20T00:53:02;100823.38;;;-11.39;99.50
78800;BME280;68148;55.328;86.106;2023-12-20T00:55:27;100819.97;;;-11.37;99.79
78800;BME280;68148;55.328;86.106;2023-12-20T00:57:54;100822.41;;;-11.30;99.42
78800;BME280;68148;55.328;86.106;2023-12-20T01:00:19;100824.09;;;-11.28;99.76
78800;BME280;68148;55.328;86.106;2023-12-20T01:02:45;100831.72;;;-11.28;100.00
78800;BME280;68148;55.328;86.106;2023-12-20T01:05:11;100824.84;;;-11.23;100.00
78800;BME280;68148;55.328;86.106;2023-12-20T01:07:37;100830.75;;;-11.19;100.00
78800;BME280;68148;55.328;86.106;2023-12-20T01:10:03;100831.56;;;-11.16;100.00
78800;BME280;68148;55.328;86.106;2023-12-20T01:12:29;100837.34;;;-11.06;100.00
78800;BME280;68148;55.328;86.106;2023-12-20T01:14:55;100829.66;;;-11.03;99.98
78800;BME280;68148;55.328;86.106;2023-12-20T01:17:21;100835.56;;;-10.99;100.00
78800;BME280;68148;55.328;86.106;2023-12-20T01:19:46;100841.56;;;-11.03;100.00
78800;BME280;68148;55.328;86.106;2023-12-20T01:22:12;100841.53;;;-11.00;100.00
78800;BME280;68148;55.328;86.106;2023-12-20T01:24:38;100836.28;;;-10.93;100.00
78800;BME280;68148;55.328;86.106;2023-12-20T01:27:04;100836.44;;;-11.00;100.00
78800;BME280;68148;55.328;86.106;2023-12-20T01:29:30;100844.84;;;-10.97;100.00
78800;BME280;68148;55.328;86.106;2023-12-20T01:31:55;100845.66;;;-10.93;99.79
78800;BME280;68148;55.328;86.106;2023-12-20T01:34:21;100848.19;;;-10.92;99.28
78800;BME280;68148;55.328;86.106;2023-12-20T01:36:47;100847.41;;;-10.95;100.00
78800;BME280;68148;55.328;86.106;2023-12-20T01:39:13;100841.38;;;-10.91;100.00
78800;BME280;68148;55.328;86.106;2023-12-20T01:41:38;100854.06;;;-10.88;100.00
78800;BME280;68148;55.328;86.106;2023-12-20T01:44:05;100850.59;;;-10.82;100.00
78800;BME280;68148;55.328;86.106;2023-12-20T01:46:30;100856.59;;;-10.87;100.00
78800;BME280;68148;55.328;86.106;2023-12-20T01:48:56;100860.75;;;-10.81;100.00
78800;BME280;68148;55.328;86.106;2023-12-20T01:51:23;100867.53;;;-10.78;100.00
78800;BME280;68148;55.328;86.106;2023-12-20T01:53:49;100860.69;;;-10.76;100.00
78800;BME280;68148;55.328;86.106;2023-12-20T01:56:16;100853.75;;;-10.68;100.00
78800;BME280;68148;55.328;86.106;2023-12-20T01:58:44;100866.59;;;-10.73;100.00
78800;BME280;68148;55.328;86.106;2023-12-20T02:01:12;100871.78;;;-10.79;100.00
78800;BME280;68148;55.328;86.106;2023-12-20T02:03:39;100869.13;;;-10.73;100.00
78800;BME280;68148;55.328;86.106;2023-12-20T02:06:06;100866.63;;;-10.76;100.00
78800;BME280;68148;55.328;86.106;2023-12-20T02:08:32;100872.56;;;-10.74;100.00
78800;BME280;68148;55.328;86.106;2023-12-20T02:10:58;100881.13;;;-10.78;100.00
78800;BME280;68148;55.328;86.106;2023-12-20T02:13:24;100880.28;;;-10.78;100.00
78800;BME280;68148;55.328;86.106;2023-12-20T02:15:50;100890.53;;;-10.81;100.00
78800;BME280;68148;55.328;86.106;2023-12-20T02:18:16;100888.63;;;-10.69;100.00
78800;BME280;68148;55.328;86.106;2023-12-20T02:20:42;100892.81;;;-10.66;100.00
78800;BME280;68148;55.328;86.106;2023-12-20T02:23:08;100891.09;;;-10.64;100.00
78800;BME280;68148;55.328;86.106;2023-12-20T02:25:34;100888.50;;;-10.63;100.00
78800;BME280;68148;55.328;86.106;2023-12-20T02:28:01;100897.78;;;-10.57;100.00
78800;BME280;68148;55.328;86.106;2023-12-20T02:30:27;100899.53;;;-10.61;100.00
78800;BME280;68148;55.328;86.106;2023-12-20T02:32:53;100898.63;;;-10.56;100.00
78800;BME280;68148;55.328;86.106;2023-12-20T02:35:19;100901.97;;;-10.53;100.00
78800;BME280;68148;55.328;86.106;2023-12-20T02:37:45;100906.13;;;-10.47;100.00
78800;BME280;68148;55.328;86.106;2023-12-20T02:40:11;100902.72;;;-10.45;100.00
78800;BME280;68148;55.328;86.106;2023-12-20T02:42:48;100906.75;;;-10.33;100.00
78800;BME280;68148;55.328;86.106;2023-12-20T02:45:14;100911.97;;;-10.39;100.00
78800;BME280;68148;55.328;86.106;2023-12-20T02:47:40;100914.50;;;-10.39;100.00
78800;BME280;68148;55.328;86.106;2023-12-20T02:50:06;100911.03;;;-10.37;100.00
78800;BME280;68148;55.328;86.106;2023-12-20T02:52:32;100910.84;;;-10.24;100.00
78800;BME280;68148;55.328;86.106;2023-12-20T02:54:58;100911.56;;;-10.19;100.00
78800;BME280;68148;55.328;86.106;2023-12-20T02:57:24;100910.59;;;-10.12;99.96
78800;BME280;68148;55.328;86.106;2023-12-20T02:59:50;100913.25;;;-10.17;100.00
78800;BME280;68148;55.328;86.106;2023-12-20T03:02:16;100910.50;;;-10.06;100.00
78800;BME280;68148;55.328;86.106;2023-12-20T03:04:42;100915.56;;;-10.04;100.00
78800;BME280;68148;55.328;86.106;2023-12-20T03:07:08;100911.19;;;-9.98;100.00
78800;BME280;68148;55.328;86.106;2023-12-20T03:09:33;100913.38;;;-9.78;100.00
78800;BME280;68148;55.328;86.106;2023-12-20T03:11:59;100918.53;;;-9.81;100.00
78800;BME280;68148;55.328;86.106;2023-12-20T03:14:25;100918.63;;;-9.86;100.00
78800;BME280;68148;55.328;86.106;2023-12-20T03:16:51;100921.00;;;-9.75;100.00
78800;BME280;68148;55.328;86.106;2023-12-20T03:19:18;100927.66;;;-9.66;100.00
78800;BME280;68148;55.328;86.106;2023-12-20T03:21:44;100931.88;;;-9.65;100.00
78800;BME280;68148;55.328;86.106;2023-12-20T03:24:09;100930.00;;;-9.57;100.00
78800;BME280;68148;55.328;86.106;2023-12-20T03:26:35;100932.47;;;-9.52;100.00
78800;BME280;68148;55.328;86.106;2023-12-20T03:29:02;100934.06;;;-9.45;100.00
78800;BME280;68148;55.328;86.106;2023-12-20T03:31:28;100940.94;;;-9.49;100.00
78800;BME280;68148;55.328;86.106;2023-12-20T03:33:54;100938.25;;;-9.43;100.00
78800;BME280;68148;55.328;86.106;2023-12-20T03:36:20;100938.25;;;-9.43;100.00
78800;BME280;68148;55.328;86.106;2023-12-20T03:38:46;100947.44;;;-9.34;100.00
78800;BME280;68148;55.328;86.106;2023-12-20T03:41:12;100945.63;;;-9.27;100.00
78800;BME280;68148;55.328;86.106;2023-12-20T03:43:38;100949.88;;;-9.28;100.00
78800;BME280;68148;55.328;86.106;2023-12-20T03:46:04;100959.91;;;-9.19;100.00
78800;BME280;68148;55.328;86.106;2023-12-20T03:48:33;100950.66;;;-9.24;100.00
78800;BME280;68148;55.328;86.106;2023-12-20T03:50:58;100956.47;;;-9.16;100.00
78800;BME280;68148;55.328;86.106;2023-12-20T03:53:25;100958.94;;;-9.13;100.00
78800;BME280;68148;55.328;86.106;2023-12-20T03:55:51;100956.09;;;-8.99;100.00
78800;BME280;68148;55.328;86.106;2023-12-20T03:58:16;100953.38;;;-8.92;100.00
78800;BME280;68148;55.328;86.106;2023-12-20T04:00:42;100958.47;;;-8.90;100.00
78800;BME280;68148;55.328;86.106;2023-12-20T04:03:08;100959.94;;;-8.80;100.00
78800;BME280;68148;55.328;86.106;2023-12-20T04:05:34;100954.09;;;-8.87;100.00
78800;BME280;68148;55.328;86.106;2023-12-20T04:08:01;100954.16;;;-8.88;100.00
78800;BME280;68148;55.328;86.106;2023-12-20T04:10:27;100953.94;;;-8.77;100.00
78800;BME280;68148;55.328;86.106;2023-12-20T04:12:53;100948.91;;;-8.82;100.00
78800;BME280;68148;55.328;86.106;2023-12-20T04:15:19;100952.78;;;-8.64;100.00
78800;BME280;68148;55.328;86.106;2023-12-20T04:17:55;100947.56;;;-8.60;99.74
78800;BME280;68148;55.328;86.106;2023-12-20T04:20:27;100954.34;;;-8.59;99.71
78800;BME280;68148;55.328;86.106;2023-12-20T04:22:53;100951.84;;;-8.60;99.91
78800;BME280;68148;55.328;86.106;2023-12-20T04:25:19;100951.84;;;-8.62;100.00
78800;BME280;68148;55.328;86.106;2023-12-20T04:27:45;100961.75;;;-8.48;99.93
78800;BME280;68148;55.328;86.106;2023-12-20T04:30:11;100965.22;;;-8.49;99.79
78800;BME280;68148;55.328;86.106;2023-12-20T04:32:37;100971.09;;;-8.45;99.48
78800;BME280;68148;55.328;86.106;2023-12-20T04:35:07;100963.47;;;-8.47;100.00
78800;BME280;68148;55.328;86.106;2023-12-20T04:37:34;100963.25;;;-8.38;99.45
78800;BME280;68148;55.328;86.106;2023-12-20T04:40:00;100969.09;;;-8.34;98.68
78800;BME280;68148;55.328;86.106;2023-12-20T04:42:26;100969.00;;;-8.31;99.01
78800;BME280;68148;55.328;86.106;2023-12-20T04:44:52;100974.31;;;-8.37;99.65
78800;BME280;68148;55.328;86.106;2023-12-20T04:47:17;100972.22;;;-8.23;99.14
78800;BME280;68148;55.328;86.106;2023-12-20T04:49:43;100972.88;;;-8.13;99.39
78800;BME280;68148;55.328;86.106;2023-12-20T04:52:09;100979.63;;;-8.11;99.25
78800;BME280;68148;55.328;86.106;2023-12-20T04:54:35;100990.56;;;-8.04;99.63
78800;BME280;68148;55.328;86.106;2023-12-20T04:57:01;100979.16;;;-7.92;100.00
78800;BME280;68148;55.328;86.106;2023-12-20T04:59:28;100986.63;;;-7.83;100.00
78800;BME280;68148;55.328;86.106;2023-12-20T05:01:54;100985.47;;;-7.71;100.00
78800;BME280;68148;55.328;86.106;2023-12-20T05:04:20;100993.00;;;-7.65;100.00
78800;BME280;68148;55.328;86.106;2023-12-20T05:06:46;101003.72;;;-7.51;100.00
78800;BME280;68148;55.328;86.106;2023-12-20T05:09:12;100997.59;;;-7.45;100.00
78800;BME280;68148;55.328;86.106;2023-12-20T05:11:37;101005.06;;;-7.38;100.00
78800;BME280;68148;55.328;86.106;2023-12-20T05:14:04;101003.72;;;-7.18;100.00
78800;BME280;68148;55.328;86.106;2023-12-20T05:16:30;100996.00;;;-7.18;100.00
78800;BME280;68148;55.328;86.106;2023-12-20T05:18:57;100997.59;;;-7.14;100.00
78800;BME280;68148;55.328;86.106;2023-12-20T05:21:22;100998.44;;;-7.14;100.00
78800;BME280;68148;55.328;86.106;2023-12-20T05:23:48;101004.22;;;-7.07;100.00
78800;BME280;68148;55.328;86.106;2023-12-20T05:26:14;101005.75;;;-7.00;99.62
78800;BME280;68148;55.328;86.106;2023-12-20T05:28:40;101004.91;;;-7.00;98.78
78800;BME280;68148;55.328;86.106;2023-12-20T05:31:18;101015.31;;;-7.05;99.02
78800;BME280;68148;55.328;86.106;2023-12-20T05:33:44;101015.09;;;-6.97;97.87
78800;BME280;68148;55.328;86.106;2023-12-20T05:36:10;101019.50;;;-7.02;98.54
78800;BME280;68148;55.328;86.106;2023-12-20T05:38:36;101036.66;;;-7.04;98.53
78800;BME280;68148;55.328;86.106;2023-12-20T05:41:01;101023.19;;;-7.13;98.41
78800;BME280;68148;55.328;86.106;2023-12-20T05:43:27;101026.88;;;-7.21;98.48
78800;BME280;68148;55.328;86.106;2023-12-20T05:45:53;101026.19;;;-7.28;99.03
78800;BME280;68148;55.328;86.106;2023-12-20T05:48:22;101032.00;;;-7.21;99.24
78800;BME280;68148;55.328;86.106;2023-12-20T05:50:50;101032.69;;;-7.15;99.07
78800;BME280;68148;55.328;86.106;2023-12-20T05:53:16;101034.88;;;-7.02;98.62
78800;BME280;68148;55.328;86.106;2023-12-20T05:55:42;101040.75;;;-6.97;98.54
78800;BME280;68148;55.328;86.106;2023-12-20T05:58:07;101037.34;;;-6.98;98.63
78800;BME280;68148;55.328;86.106;2023-12-20T06:00:33;101045.63;;;-6.88;98.69
78800;BME280;68148;55.328;86.106;2023-12-20T06:02:59;101042.94;;;-6.85;97.79
78800;BME280;68148;55.328;86.106;2023-12-20T06:05:25;101035.13;;;-6.81;98.00
78800;BME280;68148;55.328;86.106;2023-12-20T06:07:51;101040.63;;;-6.93;98.14
78800;BME280;68148;55.328;86.106;2023-12-20T06:10:20;101046.25;;;-6.80;98.09
78800;BME280;68148;55.328;86.106;2023-12-20T06:12:45;101043.19;;;-6.63;97.67
78800;BME280;68148;55.328;86.106;2023-12-20T06:15:30;101049.31;;;-6.67;97.54
78800;BME280;68148;55.328;86.106;2023-12-20T06:17:56;101051.19;;;-6.74;97.81
78800;BME280;68148;55.328;86.106;2023-12-20T06:20:22;101053.84;;;-6.77;97.96
78800;BME280;68148;55.328;86.106;2023-12-20T06:22:47;101053.47;;;-6.63;97.97
78800;BME280;68148;55.328;86.106;2023-12-20T06:25:13;101053.22;;;-6.56;97.50
78800;BME280;68148;55.328;86.106;2023-12-20T06:27:39;101049.72;;;-6.53;97.47
78800;BME280;68148;55.328;86.106;2023-12-20T06:30:05;101057.16;;;-6.44;97.52
78800;BME280;68148;55.328;86.106;2023-12-20T06:32:34;101060.84;;;-6.24;97.79
78800;BME280;68148;55.328;86.106;2023-12-20T06:35:01;101058.56;;;-6.34;96.46
78800;BME280;68148;55.328;86.106;2023-12-20T06:37:27;101055.91;;;-6.04;97.06
78800;BME280;68148;55.328;86.106;2023-12-20T06:39:53;101059.38;;;-6.05;96.55
78800;BME280;68148;55.328;86.106;2023-12-20T06:42:19;101054.44;;;-6.11;96.11
78800;BME280;68148;55.328;86.106;2023-12-20T06:44:45;101057.78;;;-6.09;95.63
78800;BME280;68148;55.328;86.106;2023-12-20T06:47:28;101055.47;;;-6.17;96.39
78800;BME280;68148;55.328;86.106;2023-12-20T06:49:54;101059.16;;;-6.25;96.38
78800;BME280;68148;55.328;86.106;2023-12-20T06:52:20;101059.22;;;-6.27;96.48
78800;BME280;68148;55.328;86.106;2023-12-20T06:54:46;101052.00;;;-6.44;97.11
78800;BME280;68148;55.328;86.106;2023-12-20T06:57:12;101054.00;;;-6.24;97.21
78800;BME280;68148;55.328;86.106;2023-12-20T06:59:39;101061.84;;;-6.28;97.04
78800;BME280;68148;55.328;86.106;2023-12-20T07:02:10;101065.66;;;-6.42;97.45
78800;BME280;68148;55.328;86.106;2023-12-20T07:04:40;101057.91;;;-6.40;98.18
78800;BME280;68148;55.328;86.106;2023-12-20T07:07:06;101073.03;;;-6.31;97.87
78800;BME280;68148;55.328;86.106;2023-12-20T07:09:32;101066.66;;;-6.47;98.76
78800;BME280;68148;55.328;86.106;2023-12-20T07:11:57;101065.75;;;-6.45;98.52
78800;BME280;68148;55.328;86.106;2023-12-20T07:14:23;101067.84;;;-6.58;99.39
78800;BME280;68148;55.328;86.106;2023-12-20T07:16:49;101076.38;;;-6.57;99.26
78800;BME280;68148;55.328;86.106;2023-12-20T07:19:15;101076.09;;;-6.48;98.78
78800;BME280;68148;55.328;86.106;2023-12-20T07:21:41;101081.84;;;-6.40;98.26
78800;BME280;68148;55.328;86.106;2023-12-20T07:24:07;101085.59;;;-6.22;98.39
78800;BME280;68148;55.328;86.106;2023-12-20T07:26:33;101087.59;;;-6.32;97.72
78800;BME280;68148;55.328;86.106;2023-12-20T07:28:58;101093.59;;;-6.31;97.87
78800;BME280;68148;55.328;86.106;2023-12-20T07:31:24;101095.00;;;-6.21;98.56
78800;BME280;68148;55.328;86.106;2023-12-20T07:33:51;101100.69;;;-6.11;97.14
78800;BME280;68148;55.328;86.106;2023-12-20T07:36:17;101098.66;;;-6.30;98.10
78800;BME280;68148;55.328;86.106;2023-12-20T07:38:43;101108.94;;;-6.30;97.28
78800;BME280;68148;55.328;86.106;2023-12-20T07:41:11;101116.00;;;-6.36;97.75
78800;BME280;68148;55.328;86.106;2023-12-20T07:43:38;101108.91;;;-6.28;97.35
78800;BME280;68148;55.328;86.106;2023-12-20T07:46:07;101114.19;;;-6.33;97.48
78800;BME280;68148;55.328;86.106;2023-12-20T07:48:37;101121.53;;;-6.20;97.95
78800;BME280;68148;55.328;86.106;2023-12-20T07:51:03;101111.13;;;-6.16;97.67
78800;BME280;68148;55.328;86.106;2023-12-20T07:53:29;101118.50;;;-6.33;98.39
78800;BME280;68148;55.328;86.106;2023-12-20T07:55:55;101124.00;;;-6.17;98.03
78800;BME280;68148;55.328;86.106;2023-12-20T07:58:21;101119.81;;;-6.20;97.85
78800;BME280;68148;55.328;86.106;2023-12-20T08:00:47;101124.44;;;-6.03;97.91
78800;BME280;68148;55.328;86.106;2023-12-20T08:03:13;101125.69;;;-6.16;97.73
78800;BME280;68148;55.328;86.106;2023-12-20T08:05:39;101110.16;;;-6.13;98.38
78800;BME280;68148;55.328;86.106;2023-12-20T08:08:05;101112.72;;;-6.13;98.18
78800;BME280;68148;55.328;86.106;2023-12-20T08:10:31;101127.63;;;-5.95;97.43
78800;BME280;68148;55.328;86.106;2023-12-20T08:12:57;101134.44;;;-5.94;97.22
78800;BME280;68148;55.328;86.106;2023-12-20T08:15:23;101120.69;;;-5.93;97.94
78800;BME280;68148;55.328;86.106;2023-12-20T08:17:50;101124.53;;;-6.06;97.61
78800;BME280;68148;55.328;86.106;2023-12-20T08:20:17;101116.88;;;-6.08;97.47
78800;BME280;68148;55.328;86.106;2023-12-20T08:22:43;101123.72;;;-6.08;97.19
78800;BME280;68148;55.328;86.106;2023-12-20T08:25:08;101127.38;;;-6.15;97.52
78800;BME280;68148;55.328;86.106;2023-12-20T08:27:39;101132.06;;;-6.30;97.91
78800;BME280;68148;55.328;86.106;2023-12-20T08:30:06;101124.69;;;-6.40;98.22
78800;BME280;68148;55.328;86.106;2023-12-20T08:32:34;101126.56;;;-6.47;98.01
78800;BME280;68148;55.328;86.106;2023-12-20T08:35:00;101131.84;;;-6.51;97.63
78800;BME280;68148;55.328;86.106;2023-12-20T08:37:26;101139.81;;;-6.61;97.71
78800;BME280;68148;55.328;86.106;2023-12-20T08:39:52;101137.38;;;-6.65;97.27
78800;BME280;68148;55.328;86.106;2023-12-20T08:42:18;101136.94;;;-6.81;98.03
78800;BME280;68148;55.328;86.106;2023-12-20T08:45:00;101139.09;;;-6.98;98.58
78800;BME280;68148;55.328;86.106;2023-12-20T08:47:25;101136.78;;;-7.08;98.73
78800;BME280;68148;55.328;86.106;2023-12-20T08:49:52;101139.72;;;-7.21;99.56
78800;BME280;68148;55.328;86.106;2023-12-20T08:52:17;101140.59;;;-7.22;99.31
78800;BME280;68148;55.328;86.106;2023-12-20T08:54:43;101152.72;;;-7.27;99.05
78800;BME280;68148;55.328;86.106;2023-12-20T08:57:14;101155.28;;;-7.29;99.50
78800;BME280;68148;55.328;86.106;2023-12-20T08:59:40;101153.00;;;-7.40;99.34
78800;BME280;68148;55.328;86.106;2023-12-20T09:02:06;101164.22;;;-7.45;99.69
78800;BME280;68148;55.328;86.106;2023-12-20T09:04:32;101159.22;;;-7.50;99.06
78800;BME280;68148;55.328;86.106;2023-12-20T09:06:59;101169.75;;;-7.61;100.00
78800;BME280;68148;55.328;86.106;2023-12-20T09:09:25;101160.38;;;-7.62;99.67
78800;BME280;68148;55.328;86.106;2023-12-20T09:11:51;101164.66;;;-7.62;100.00
78800;BME280;68148;55.328;86.106;2023-12-20T09:14:17;101162.22;;;-7.68;99.97
78800;BME280;68148;55.328;86.106;2023-12-20T09:16:43;101159.53;;;-7.62;99.56
78800;BME280;68148;55.328;86.106;2023-12-20T09:19:08;101156.94;;;-7.61;99.47
78800;BME280;68148;55.328;86.106;2023-12-20T09:21:34;101167.34;;;-7.68;99.75
78800;BME280;68148;55.328;86.106;2023-12-20T09:24:01;101166.56;;;-7.70;99.88
78800;BME280;68148;55.328;86.106;2023-12-20T09:26:27;101167.47;;;-7.73;99.81
78800;BME280;68148;55.328;86.106;2023-12-20T09:28:52;101171.75;;;-7.73;100.00
78800;BME280;68148;55.328;86.106;2023-12-20T09:31:18;101169.22;;;-7.75;100.00
78800;BME280;68148;55.328;86.106;2023-12-20T09:33:44;101165.72;;;-7.72;100.00
78800;BME280;68148;55.328;86.106;2023-12-20T09:36:10;101163.06;;;-7.68;100.00
78800;BME280;68148;55.328;86.106;2023-12-20T09:38:36;101172.53;;;-7.70;99.76
78800;BME280;68148;55.328;86.106;2023-12-20T09:41:02;101163.94;;;-7.69;99.55
78800;BME280;68148;55.328;86.106;2023-12-20T09:43:29;101165.88;;;-7.78;99.84
78800;BME280;68148;55.328;86.106;2023-12-20T09:45:59;101167.72;;;-7.84;100.00
78800;BME280;68148;55.328;86.106;2023-12-20T09:48:26;101163.59;;;-7.91;100.00
78800;BME280;68148;55.328;86.106;2023-12-20T09:50:53;101169.63;;;-7.93;100.00
78800;BME280;68148;55.328;86.106;2023-12-20T09:53:19;101165.34;;;-7.93;100.00
78800;BME280;68148;55.328;86.106;2023-12-20T09:55:45;101172.16;;;-7.92;100.00
78800;BME280;68148;55.328;86.106;2023-12-20T09:58:11;101163.53;;;-7.88;100.00
78800;BME280;68148;55.328;86.106;2023-12-20T10:00:37;101164.22;;;-7.81;100.00
78800;BME280;68148;55.328;86.106;2023-12-20T10:03:03;101166.06;;;-7.86;100.00
78800;BME280;68148;55.328;86.106;2023-12-20T10:05:32;101164.16;;;-7.78;100.00
78800;BME280;68148;55.328;86.106;2023-12-20T10:07:59;101164.28;;;-7.84;100.00
78800;BME280;68148;55.328;86.106;2023-12-20T10:10:25;101167.47;;;-7.73;100.00
78800;BME280;68148;55.328;86.106;2023-12-20T10:13:05;101164.78;;;-7.68;100.00
78800;BME280;68148;55.328;86.106;2023-12-20T10:15:35;101166.63;;;-7.73;100.00
78800;BME280;68148;55.328;86.106;2023-12-20T10:18:03;101164.78;;;-7.68;100.00
78800;BME280;68148;55.328;86.106;2023-12-20T10:20:30;101162.28;;;-7.70;100.00
78800;BME280;68148;55.328;86.106;2023-12-20T10:23:00;101154.53;;;-7.68;100.00
78800;BME280;68148;55.328;86.106;2023-12-20T10:25:26;101159.53;;;-7.62;100.00
78800;BME280;68148;55.328;86.106;2023-12-20T10:28:12;101153.25;;;-7.50;100.00
78800;BME280;68148;55.328;86.106;2023-12-20T10:30:39;101150.81;;;-7.55;100.00
78800;BME280;68148;55.328;86.106;2023-12-20T10:33:06;101155.81;;;-7.50;100.00
78800;BME280;68148;55.328;86.106;2023-12-20T10:35:33;101153.78;;;-7.36;100.00
78800;BME280;68148;55.328;86.106;2023-12-20T10:38:04;101153.91;;;-7.41;100.00
78800;BME280;68148;55.328;86.106;2023-12-20T10:40:36;101160.47;;;-7.31;100.00
78800;BME280;68148;55.328;86.106;2023-12-20T10:43:03;101154.53;;;-7.33;100.00
78800;BME280;68148;55.328;86.106;2023-12-20T10:45:29;101147.69;;;-7.32;100.00
78800;BME280;68148;55.328;86.106;2023-12-20T10:47:56;101160.47;;;-7.31;100.00
78800;BME280;68148;55.328;86.106;2023-12-20T10:50:23;101155.34;;;-7.31;100.00
78800;BME280;68148;55.328;86.106;2023-12-20T10:52:50;101145.88;;;-7.28;100.00
78800;BME280;68148;55.328;86.106;2023-12-20T10:55:16;101161.06;;;-7.21;100.00
78800;BME280;68148;55.328;86.106;2023-12-20T10:57:42;101161.06;;;-7.19;100.00
78800;BME280;68148;55.328;86.106;2023-12-20T11:00:13;101160.88;;;-7.13;100.00
78800;BME280;68148;55.328;86.106;2023-12-20T11:02:42;101167.81;;;-7.17;100.00
78800;BME280;68148;55.328;86.106;2023-12-20T11:08:23;101166.84;;;-7.13;100.00
78800;BME280;68148;55.328;86.106;2023-12-20T11:13:22;101158.25;;;-7.10;100.00
78800;BME280;68148;55.328;86.106;2023-12-20T11:15:49;101160.69;;;-7.06;100.00
78800;BME280;68148;55.328;86.106;2023-12-20T11:18:15;101169.22;;;-7.05;100.00
78800;BME280;68148;55.328;86.106;2023-12-20T11:20:41;101169.22;;;-7.05;100.00
78800;BME280;68148;55.328;86.106;2023-12-20T11:23:10;101168.50;;;-7.10;100.00
78800;BME280;68148;55.328;86.106;2023-12-20T11:25:52;101166.59;;;-7.02;100.00
78800;BME280;68148;55.328;86.106;2023-12-20T11:28:25;101158.91;;;-7.03;100.00
78800;BME280;68148;55.328;86.106;2023-12-20T11:30:53;101163.16;;;-7.01;100.00
78800;BME280;68148;55.328;86.106;2023-12-20T11:33:29;101163.97;;;-7.00;100.00
78800;BME280;68148;55.328;86.106;2023-12-20T11:35:56;101166.47;;;-6.97;100.00
78800;BME280;68148;55.328;86.106;2023-12-20T11:38:21;101178.53;;;-7.01;100.00
78800;BME280;68148;55.328;86.106;2023-12-20T11:40:51;101181.03;;;-6.98;100.00
78800;BME280;68148;55.328;86.106;2023-12-20T11:43:38;101164.78;;;-6.98;100.00
78800;BME280;68148;55.328;86.106;2023-12-20T11:46:09;101165.59;;;-6.96;100.00
78800;BME280;68148;55.328;86.106;2023-12-20T11:48:36;101167.47;;;-7.03;100.00
78800;BME280;68148;55.328;86.106;2023-12-20T11:51:02;101175.09;;;-7.00;100.00
78800;BME280;68148;55.328;86.106;2023-12-20T11:53:28;101164.75;;;-6.97;100.00
78800;BME280;68148;55.328;86.106;2023-12-20T11:55:54;101169.81;;;-6.95;100.00
78800;BME280;68148;55.328;86.106;2023-12-20T11:58:20;101166.25;;;-6.90;100.00
78800;BME280;68148;55.328;86.106;2023-12-20T12:00:49;101170.28;;;-6.81;100.00
78800;BME280;68148;55.328;86.106;2023-12-20T12:03:15;101171.38;;;-6.90;100.00
78800;BME280;68148;55.328;86.106;2023-12-20T12:05:41;101171.38;;;-6.90;100.00
78800;BME280;68148;55.328;86.106;2023-12-20T12:08:08;101162.81;;;-6.89;100.00
78800;BME280;68148;55.328;86.106;2023-12-20T12:10:36;101167.13;;;-6.91;100.00
78800;BME280;68148;55.328;86.106;2023-12-20T12:13:11;101162.81;;;-6.89;100.00
78800;BME280;68148;55.328;86.106;2023-12-20T12:15:43;101169.44;;;-6.80;100.00
78800;BME280;68148;55.328;86.106;2023-12-20T12:18:11;101167.84;;;-6.84;100.00
78800;BME280;68148;55.328;86.106;2023-12-20T12:20:40;101163.78;;;-6.93;100.00
78800;BME280;68148;55.328;86.106;2023-12-20T12:23:22;101163.66;;;-6.88;100.00
78800;BME280;68148;55.328;86.106;2023-12-20T12:25:48;101157.81;;;-6.93;100.00
78800;BME280;68148;55.328;86.106;2023-12-20T12:28:20;101163.56;;;-6.85;100.00
78800;BME280;68148;55.328;86.106;2023-12-20T12:30:58;101155.19;;;-6.92;100.00
78800;BME280;68148;55.328;86.106;2023-12-20T12:33:28;101159.50;;;-6.94;100.00
78800;BME280;68148;55.328;86.106;2023-12-20T12:35:56;101157.84;;;-6.95;100.00
78800;BME280;68148;55.328;86.106;2023-12-20T12:38:25;101152.69;;;-6.93;100.00